This is the latest recevied weather packets stored in our database for station/object ED1ZAI-13. If no packets are shown the sender has not sent any weather packets the latest 10 day(s).
| Time | Temp. | Humidity | Pressure | Rain* | Wind** | Luminosity | Snow |
|---|---|---|---|---|---|---|---|
| 1777798569 | 13.89° C | 74% | 1013 hPa | 0 mm | - | - | - |
| 1777797969 | 13.33° C | 77% | 1013.1 hPa | 0 mm | - | - | - |
| 1777797369 | 13.33° C | 74% | 1013.2 hPa | 0 mm | - | - | - |
| 1777796771 | 13.89° C | 74% | 1013.1 hPa | 0 mm | - | - | - |
| 1777796170 | 13.89° C | 75% | 1013.1 hPa | 0 mm | - | - | - |
| 1777795570 | 13.33° C | 78% | 1013.1 hPa | 0 mm | - | - | - |
| 1777794970 | 13.33° C | 78% | 1013.1 hPa | 0 mm | - | - | - |
| 1777794370 | 12.78° C | 80% | 1013.3 hPa | 0 mm | - | - | - |
| 1777793769 | 12.78° C | 80% | 1013.1 hPa | 0 mm | - | - | - |
| 1777793169 | 13.33° C | 82% | 1013.1 hPa | 0 mm | - | - | - |
| 1777792571 | 12.22° C | 84% | 1013.4 hPa | 0 mm | - | - | - |
| 1777791970 | 11.67° C | 86% | 1013.9 hPa | 0 mm | - | - | - |
| 1777791369 | 10.56° C | 86% | 1014 hPa | 0 mm | - | - | - |
| 1777790769 | 11.11° C | 82% | 1013.6 hPa | 0 mm | - | - | - |
| 1777790171 | 12.22° C | 79% | 1013.3 hPa | 0 mm | - | - | - |
| 1777789570 | 12.78° C | 80% | 1013.1 hPa | 0 mm | - | - | - |
| 1777788970 | 12.78° C | 80% | 1013.1 hPa | 0 mm | - | - | - |
| 1777788369 | 12.22° C | 81% | 1013.2 hPa | 0 mm | - | - | - |
| 1777787769 | 11.67° C | 81% | 1013.2 hPa | 0 mm | - | - | - |
| 1777787170 | 12.22° C | 80% | 1013.1 hPa | 0 mm | - | - | - |
| 1777786570 | 11.67° C | 80% | 1013.1 hPa | 0 mm | - | - | - |
| 1777785969 | 12.22° C | 79% | 1013 hPa | 0 mm | - | - | - |
| 1777785369 | 12.22° C | 80% | 1013 hPa | 0 mm | - | - | - |
| 1777784770 | 12.22° C | 79% | 1012.9 hPa | 0 mm | - | - | - |
| 1777784170 | 12.22° C | 81% | 1013 hPa | 0 mm | - | - | - |
* Rain latest hour (hover to see other rain measurements)
** Current wind speed in m/s (hover to see current wind gust speed)